sensor_id;sensor_type;location;lat;lon;timestamp;P1;durP1;ratioP1;P2;durP2;ratioP2
35290;SDS011;21411;50.024;19.220;2023-04-03T00:00:33;18.20;;;16.00;;
35290;SDS011;21411;50.024;19.220;2023-04-03T00:03:16;21.70;;;17.90;;
35290;SDS011;21411;50.024;19.220;2023-04-03T00:05:44;17.00;;;15.00;;
35290;SDS011;21411;50.024;19.220;2023-04-03T00:08:11;18.20;;;14.70;;
35290;SDS011;21411;50.024;19.220;2023-04-03T00:10:38;17.00;;;15.20;;
35290;SDS011;21411;50.024;19.220;2023-04-03T00:13:05;17.30;;;15.50;;
35290;SDS011;21411;50.024;19.220;2023-04-03T00:15:32;17.00;;;15.20;;
35290;SDS011;21411;50.024;19.220;2023-04-03T00:18:00;16.90;;;15.10;;
35290;SDS011;21411;50.024;19.220;2023-04-03T00:20:27;20.90;;;16.30;;
35290;SDS011;21411;50.024;19.220;2023-04-03T00:22:54;17.40;;;15.50;;
35290;SDS011;21411;50.024;19.220;2023-04-03T00:25:21;17.70;;;15.50;;
35290;SDS011;21411;50.024;19.220;2023-04-03T00:27:48;14.70;;;13.30;;
35290;SDS011;21411;50.024;19.220;2023-04-03T00:30:15;15.00;;;13.50;;
35290;SDS011;21411;50.024;19.220;2023-04-03T00:32:43;13.50;;;11.40;;
35290;SDS011;21411;50.024;19.220;2023-04-03T00:35:10;12.80;;;10.60;;
35290;SDS011;21411;50.024;19.220;2023-04-03T00:37:37;9.50;;;8.50;;
35290;SDS011;21411;50.024;19.220;2023-04-03T00:40:04;10.20;;;9.10;;
35290;SDS011;21411;50.024;19.220;2023-04-03T00:42:31;8.30;;;6.90;;
35290;SDS011;21411;50.024;19.220;2023-04-03T00:47:26;8.80;;;7.90;;
35290;SDS011;21411;50.024;19.220;2023-04-03T00:49:54;9.50;;;7.80;;
35290;SDS011;21411;50.024;19.220;2023-04-03T00:52:22;8.40;;;7.00;;
35290;SDS011;21411;50.024;19.220;2023-04-03T00:54:52;6.80;;;6.10;;
35290;SDS011;21411;50.024;19.220;2023-04-03T00:57:23;7.00;;;5.70;;
35290;SDS011;21411;50.024;19.220;2023-04-03T00:59:51;7.20;;;6.40;;
35290;SDS011;21411;50.024;19.220;2023-04-03T01:02:23;7.20;;;6.10;;
35290;SDS011;21411;50.024;19.220;2023-04-03T01:04:50;6.00;;;5.40;;
35290;SDS011;21411;50.024;19.220;2023-04-03T01:07:18;6.10;;;5.50;;
35290;SDS011;21411;50.024;19.220;2023-04-03T01:09:54;5.80;;;4.80;;
35290;SDS011;21411;50.024;19.220;2023-04-03T01:12:28;5.50;;;4.60;;
35290;SDS011;21411;50.024;19.220;2023-04-03T01:15:00;5.20;;;4.70;;
35290;SDS011;21411;50.024;19.220;2023-04-03T01:17:47;7.40;;;5.10;;
35290;SDS011;21411;50.024;19.220;2023-04-03T01:22:56;4.50;;;3.90;;
35290;SDS011;21411;50.024;19.220;2023-04-03T01:25:37;4.20;;;3.40;;
35290;SDS011;21411;50.024;19.220;2023-04-03T01:28:17;6.10;;;4.00;;
35290;SDS011;21411;50.024;19.220;2023-04-03T01:30:48;5.90;;;3.50;;
35290;SDS011;21411;50.024;19.220;2023-04-03T01:33:23;4.80;;;4.10;;
35290;SDS011;21411;50.024;19.220;2023-04-03T01:35:49;4.10;;;3.70;;
35290;SDS011;21411;50.024;19.220;2023-04-03T01:38:16;4.70;;;3.80;;
35290;SDS011;21411;50.024;19.220;2023-04-03T01:40:43;5.50;;;4.20;;
35290;SDS011;21411;50.024;19.220;2023-04-03T01:43:09;5.80;;;4.60;;
35290;SDS011;21411;50.024;19.220;2023-04-03T01:45:36;5.00;;;4.50;;
35290;SDS011;21411;50.024;19.220;2023-04-03T01:48:02;6.40;;;5.60;;
35290;SDS011;21411;50.024;19.220;2023-04-03T01:50:29;6.40;;;5.80;;
35290;SDS011;21411;50.024;19.220;2023-04-03T01:52:57;6.70;;;6.00;;
35290;SDS011;21411;50.024;19.220;2023-04-03T01:55:23;7.40;;;6.70;;
35290;SDS011;21411;50.024;19.220;2023-04-03T01:57:50;8.60;;;7.20;;
35290;SDS011;21411;50.024;19.220;2023-04-03T02:03:08;10.30;;;9.20;;
35290;SDS011;21411;50.024;19.220;2023-04-03T02:05:35;11.60;;;10.50;;
35290;SDS011;21411;50.024;19.220;2023-04-03T02:08:02;14.00;;;12.60;;
35290;SDS011;21411;50.024;19.220;2023-04-03T02:10:29;14.40;;;13.00;;
35290;SDS011;21411;50.024;19.220;2023-04-03T02:12:55;14.70;;;13.10;;
35290;SDS011;21411;50.024;19.220;2023-04-03T02:15:22;14.70;;;13.20;;
35290;SDS011;21411;50.024;19.220;2023-04-03T02:17:48;15.40;;;13.80;;
35290;SDS011;21411;50.024;19.220;2023-04-03T02:20:15;14.90;;;13.30;;
35290;SDS011;21411;50.024;19.220;2023-04-03T02:22:42;15.90;;;14.30;;
35290;SDS011;21411;50.024;19.220;2023-04-03T02:25:09;15.90;;;14.30;;
35290;SDS011;21411;50.024;19.220;2023-04-03T02:27:36;17.30;;;15.60;;
35290;SDS011;21411;50.024;19.220;2023-04-03T02:30:03;17.30;;;15.50;;
35290;SDS011;21411;50.024;19.220;2023-04-03T02:32:31;16.50;;;14.90;;
35290;SDS011;21411;50.024;19.220;2023-04-03T02:34:58;18.10;;;16.30;;
35290;SDS011;21411;50.024;19.220;2023-04-03T02:37:24;17.70;;;15.70;;
35290;SDS011;21411;50.024;19.220;2023-04-03T02:39:51;20.30;;;18.20;;
35290;SDS011;21411;50.024;19.220;2023-04-03T02:42:18;18.20;;;16.40;;
35290;SDS011;21411;50.024;19.220;2023-04-03T02:44:44;21.40;;;17.30;;
35290;SDS011;21411;50.024;19.220;2023-04-03T02:47:11;20.50;;;18.40;;
35290;SDS011;21411;50.024;19.220;2023-04-03T02:49:38;19.20;;;17.10;;
35290;SDS011;21411;50.024;19.220;2023-04-03T02:52:04;21.10;;;18.90;;
35290;SDS011;21411;50.024;19.220;2023-04-03T02:54:31;21.50;;;19.20;;
35290;SDS011;21411;50.024;19.220;2023-04-03T02:56:57;19.10;;;17.10;;
35290;SDS011;21411;50.024;19.220;2023-04-03T02:59:24;20.40;;;18.40;;
35290;SDS011;21411;50.024;19.220;2023-04-03T03:01:51;17.20;;;15.50;;
35290;SDS011;21411;50.024;19.220;2023-04-03T03:04:18;16.80;;;15.20;;
35290;SDS011;21411;50.024;19.220;2023-04-03T03:06:44;17.50;;;15.70;;
35290;SDS011;21411;50.024;19.220;2023-04-03T03:09:12;17.60;;;15.90;;
35290;SDS011;21411;50.024;19.220;2023-04-03T03:11:39;18.10;;;16.30;;
35290;SDS011;21411;50.024;19.220;2023-04-03T03:14:06;18.40;;;16.70;;
35290;SDS011;21411;50.024;19.220;2023-04-03T03:16:33;19.60;;;17.00;;
35290;SDS011;21411;50.024;19.220;2023-04-03T03:18:59;17.60;;;15.80;;
35290;SDS011;21411;50.024;19.220;2023-04-03T03:21:26;17.30;;;15.60;;
35290;SDS011;21411;50.024;19.220;2023-04-03T03:23:53;18.60;;;16.90;;
35290;SDS011;21411;50.024;19.220;2023-04-03T03:26:20;19.00;;;16.10;;
35290;SDS011;21411;50.024;19.220;2023-04-03T03:28:47;19.10;;;17.10;;
35290;SDS011;21411;50.024;19.220;2023-04-03T03:31:13;19.50;;;17.30;;
35290;SDS011;21411;50.024;19.220;2023-04-03T03:33:41;16.70;;;13.70;;
35290;SDS011;21411;50.024;19.220;2023-04-03T03:36:08;17.80;;;16.00;;
35290;SDS011;21411;50.024;19.220;2023-04-03T03:38:34;17.60;;;15.80;;
35290;SDS011;21411;50.024;19.220;2023-04-03T03:41:01;16.20;;;14.60;;
35290;SDS011;21411;50.024;19.220;2023-04-03T03:43:27;19.70;;;16.90;;
35290;SDS011;21411;50.024;19.220;2023-04-03T03:45:54;17.90;;;16.00;;
35290;SDS011;21411;50.024;19.220;2023-04-03T03:48:21;17.30;;;15.50;;
35290;SDS011;21411;50.024;19.220;2023-04-03T03:50:48;17.90;;;16.10;;
35290;SDS011;21411;50.024;19.220;2023-04-03T03:53:15;19.90;;;17.80;;
35290;SDS011;21411;50.024;19.220;2023-04-03T03:55:42;17.10;;;15.10;;
35290;SDS011;21411;50.024;19.220;2023-04-03T03:58:09;16.60;;;14.80;;
35290;SDS011;21411;50.024;19.220;2023-04-03T04:00:36;14.60;;;12.30;;
35290;SDS011;21411;50.024;19.220;2023-04-03T04:03:02;13.00;;;11.60;;
35290;SDS011;21411;50.024;19.220;2023-04-03T04:05:29;15.30;;;11.80;;
35290;SDS011;21411;50.024;19.220;2023-04-03T04:07:56;14.20;;;12.30;;
35290;SDS011;21411;50.024;19.220;2023-04-03T04:10:23;15.00;;;12.20;;
35290;SDS011;21411;50.024;19.220;2023-04-03T04:12:50;17.60;;;14.00;;
35290;SDS011;21411;50.024;19.220;2023-04-03T04:15:17;20.40;;;15.60;;
35290;SDS011;21411;50.024;19.220;2023-04-03T04:17:44;22.10;;;15.70;;
35290;SDS011;21411;50.024;19.220;2023-04-03T04:20:11;21.50;;;17.40;;
35290;SDS011;21411;50.024;19.220;2023-04-03T04:22:38;24.20;;;17.20;;
35290;SDS011;21411;50.024;19.220;2023-04-03T04:25:05;22.00;;;18.20;;
35290;SDS011;21411;50.024;19.220;2023-04-03T04:27:32;22.50;;;18.40;;
35290;SDS011;21411;50.024;19.220;2023-04-03T04:29:58;17.70;;;15.10;;
35290;SDS011;21411;50.024;19.220;2023-04-03T04:32:25;16.30;;;14.10;;
35290;SDS011;21411;50.024;19.220;2023-04-03T04:34:51;19.10;;;14.00;;
35290;SDS011;21411;50.024;19.220;2023-04-03T04:37:18;18.80;;;14.00;;
35290;SDS011;21411;50.024;19.220;2023-04-03T04:39:44;18.00;;;15.70;;
35290;SDS011;21411;50.024;19.220;2023-04-03T04:42:11;18.10;;;15.20;;
35290;SDS011;21411;50.024;19.220;2023-04-03T04:44:39;20.10;;;15.70;;
35290;SDS011;21411;50.024;19.220;2023-04-03T04:47:06;19.80;;;15.70;;
35290;SDS011;21411;50.024;19.220;2023-04-03T04:49:33;25.20;;;18.60;;
35290;SDS011;21411;50.024;19.220;2023-04-03T04:51:59;24.40;;;19.40;;
35290;SDS011;21411;50.024;19.220;2023-04-03T04:54:26;25.00;;;18.70;;
35290;SDS011;21411;50.024;19.220;2023-04-03T04:56:52;30.20;;;20.70;;
35290;SDS011;21411;50.024;19.220;2023-04-03T04:59:19;26.10;;;20.10;;
35290;SDS011;21411;50.024;19.220;2023-04-03T05:01:46;25.00;;;18.80;;
35290;SDS011;21411;50.024;19.220;2023-04-03T05:04:12;30.70;;;22.10;;
35290;SDS011;21411;50.024;19.220;2023-04-03T05:06:39;31.80;;;25.10;;
35290;SDS011;21411;50.024;19.220;2023-04-03T05:09:06;29.00;;;22.30;;
35290;SDS011;21411;50.024;19.220;2023-04-03T05:11:33;26.40;;;19.50;;
35290;SDS011;21411;50.024;19.220;2023-04-03T05:14:00;21.80;;;17.50;;
35290;SDS011;21411;50.024;19.220;2023-04-03T05:16:26;12.80;;;10.70;;
35290;SDS011;21411;50.024;19.220;2023-04-03T05:18:53;11.00;;;9.70;;
35290;SDS011;21411;50.024;19.220;2023-04-03T05:21:20;13.70;;;11.70;;
35290;SDS011;21411;50.024;19.220;2023-04-03T05:23:49;10.50;;;9.30;;
35290;SDS011;21411;50.024;19.220;2023-04-03T05:26:16;10.90;;;8.90;;
35290;SDS011;21411;50.024;19.220;2023-04-03T05:28:42;7.60;;;6.40;;
35290;SDS011;21411;50.024;19.220;2023-04-03T05:31:09;7.90;;;6.40;;
35290;SDS011;21411;50.024;19.220;2023-04-03T05:33:36;9.20;;;6.60;;
35290;SDS011;21411;50.024;19.220;2023-04-03T05:36:05;9.60;;;7.40;;
35290;SDS011;21411;50.024;19.220;2023-04-03T05:40:59;8.90;;;8.00;;
35290;SDS011;21411;50.024;19.220;2023-04-03T05:43:25;11.10;;;9.10;;
35290;SDS011;21411;50.024;19.220;2023-04-03T05:45:52;13.80;;;9.50;;
35290;SDS011;21411;50.024;19.220;2023-04-03T05:48:19;13.60;;;10.60;;
35290;SDS011;21411;50.024;19.220;2023-04-03T05:50:46;10.70;;;9.30;;
35290;SDS011;21411;50.024;19.220;2023-04-03T05:53:17;11.90;;;9.60;;
35290;SDS011;21411;50.024;19.220;2023-04-03T05:55:47;11.90;;;10.70;;
35290;SDS011;21411;50.024;19.220;2023-04-03T05:58:14;11.00;;;9.80;;
35290;SDS011;21411;50.024;19.220;2023-04-03T06:00:41;10.30;;;8.90;;
35290;SDS011;21411;50.024;19.220;2023-04-03T06:03:07;12.10;;;9.70;;
35290;SDS011;21411;50.024;19.220;2023-04-03T06:05:34;10.40;;;8.50;;
35290;SDS011;21411;50.024;19.220;2023-04-03T06:08:01;8.20;;;5.80;;
35290;SDS011;21411;50.024;19.220;2023-04-03T06:10:28;8.60;;;7.10;;
35290;SDS011;21411;50.024;19.220;2023-04-03T06:12:55;8.50;;;6.20;;
35290;SDS011;21411;50.024;19.220;2023-04-03T06:15:23;8.60;;;6.30;;
35290;SDS011;21411;50.024;19.220;2023-04-03T06:17:51;8.90;;;6.50;;
35290;SDS011;21411;50.024;19.220;2023-04-03T06:20:17;7.00;;;6.30;;
35290;SDS011;21411;50.024;19.220;2023-04-03T06:22:44;9.70;;;6.70;;
35290;SDS011;21411;50.024;19.220;2023-04-03T06:25:11;9.80;;;6.80;;
35290;SDS011;21411;50.024;19.220;2023-04-03T06:27:38;9.10;;;6.10;;
35290;SDS011;21411;50.024;19.220;2023-04-03T06:30:05;9.50;;;6.70;;
35290;SDS011;21411;50.024;19.220;2023-04-03T06:32:32;8.30;;;6.30;;
35290;SDS011;21411;50.024;19.220;2023-04-03T06:34:59;8.30;;;5.70;;
35290;SDS011;21411;50.024;19.220;2023-04-03T06:37:26;13.20;;;8.70;;
35290;SDS011;21411;50.024;19.220;2023-04-03T06:39:55;12.80;;;7.00;;
35290;SDS011;21411;50.024;19.220;2023-04-03T06:42:22;7.60;;;6.40;;
35290;SDS011;21411;50.024;19.220;2023-04-03T06:44:49;11.60;;;7.60;;
35290;SDS011;21411;50.024;19.220;2023-04-03T06:47:16;12.50;;;7.70;;
35290;SDS011;21411;50.024;19.220;2023-04-03T06:49:43;10.40;;;5.90;;
35290;SDS011;21411;50.024;19.220;2023-04-03T06:52:11;8.60;;;5.30;;
35290;SDS011;21411;50.024;19.220;2023-04-03T06:54:38;7.00;;;5.40;;
35290;SDS011;21411;50.024;19.220;2023-04-03T06:57:06;8.70;;;4.60;;
35290;SDS011;21411;50.024;19.220;2023-04-03T06:59:33;7.60;;;5.00;;
35290;SDS011;21411;50.024;19.220;2023-04-03T07:02:00;8.30;;;5.30;;
35290;SDS011;21411;50.024;19.220;2023-04-03T07:04:27;8.80;;;4.80;;
35290;SDS011;21411;50.024;19.220;2023-04-03T07:06:54;11.00;;;6.40;;
35290;SDS011;21411;50.024;19.220;2023-04-03T07:09:20;9.60;;;5.20;;
35290;SDS011;21411;50.024;19.220;2023-04-03T07:11:48;8.70;;;5.50;;
35290;SDS011;21411;50.024;19.220;2023-04-03T07:14:14;7.00;;;5.10;;
35290;SDS011;21411;50.024;19.220;2023-04-03T07:16:41;8.60;;;5.70;;
35290;SDS011;21411;50.024;19.220;2023-04-03T07:19:07;11.00;;;6.40;;
35290;SDS011;21411;50.024;19.220;2023-04-03T07:21:35;12.50;;;6.30;;
35290;SDS011;21411;50.024;19.220;2023-04-03T07:24:02;6.80;;;5.00;;
35290;SDS011;21411;50.024;19.220;2023-04-03T07:26:28;6.90;;;4.00;;
35290;SDS011;21411;50.024;19.220;2023-04-03T07:28:55;7.00;;;4.40;;
35290;SDS011;21411;50.024;19.220;2023-04-03T07:31:22;8.50;;;4.50;;
35290;SDS011;21411;50.024;19.220;2023-04-03T07:33:49;8.00;;;4.50;;
35290;SDS011;21411;50.024;19.220;2023-04-03T07:36:17;9.40;;;4.70;;
35290;SDS011;21411;50.024;19.220;2023-04-03T07:38:45;7.40;;;4.90;;
35290;SDS011;21411;50.024;19.220;2023-04-03T07:41:13;7.50;;;4.00;;
35290;SDS011;21411;50.024;19.220;2023-04-03T07:43:41;7.20;;;4.60;;
35290;SDS011;21411;50.024;19.220;2023-04-03T07:46:08;7.00;;;4.40;;
35290;SDS011;21411;50.024;19.220;2023-04-03T07:48:35;12.40;;;5.50;;
35290;SDS011;21411;50.024;19.220;2023-04-03T07:51:02;11.80;;;6.50;;
35290;SDS011;21411;50.024;19.220;2023-04-03T07:53:30;9.70;;;5.50;;
35290;SDS011;21411;50.024;19.220;2023-04-03T07:55:58;10.30;;;6.70;;
35290;SDS011;21411;50.024;19.220;2023-04-03T07:58:25;10.90;;;6.00;;
35290;SDS011;21411;50.024;19.220;2023-04-03T08:00:52;10.60;;;6.20;;
35290;SDS011;21411;50.024;19.220;2023-04-03T08:03:19;9.40;;;5.90;;
35290;SDS011;21411;50.024;19.220;2023-04-03T08:05:46;12.00;;;6.70;;
35290;SDS011;21411;50.024;19.220;2023-04-03T08:08:18;14.60;;;8.30;;
35290;SDS011;21411;50.024;19.220;2023-04-03T08:10:51;17.20;;;9.20;;
35290;SDS011;21411;50.024;19.220;2023-04-03T08:13:19;13.10;;;8.90;;
35290;SDS011;21411;50.024;19.220;2023-04-03T08:15:47;11.10;;;6.90;;
35290;SDS011;21411;50.024;19.220;2023-04-03T08:18:14;10.40;;;7.40;;
35290;SDS011;21411;50.024;19.220;2023-04-03T08:20:41;13.40;;;8.00;;
35290;SDS011;21411;50.024;19.220;2023-04-03T08:23:08;12.90;;;6.40;;
35290;SDS011;21411;50.024;19.220;2023-04-03T08:25:39;11.20;;;7.30;;
35290;SDS011;21411;50.024;19.220;2023-04-03T08:28:07;12.20;;;7.90;;
35290;SDS011;21411;50.024;19.220;2023-04-03T08:30:35;11.80;;;7.40;;
35290;SDS011;21411;50.024;19.220;2023-04-03T08:33:02;10.30;;;7.10;;
35290;SDS011;21411;50.024;19.220;2023-04-03T08:35:29;11.10;;;6.90;;
35290;SDS011;21411;50.024;19.220;2023-04-03T08:37:55;10.40;;;6.90;;
35290;SDS011;21411;50.024;19.220;2023-04-03T08:40:22;10.90;;;7.00;;
35290;SDS011;21411;50.024;19.220;2023-04-03T08:48:39;10.40;;;6.50;;
35290;SDS011;21411;50.024;19.220;2023-04-03T08:53:52;10.40;;;6.70;;
35290;SDS011;21411;50.024;19.220;2023-04-03T08:56:34;10.20;;;7.00;;
35290;SDS011;21411;50.024;19.220;2023-04-03T08:59:05;7.30;;;5.50;;
35290;SDS011;21411;50.024;19.220;2023-04-03T09:01:39;9.30;;;5.80;;
35290;SDS011;21411;50.024;19.220;2023-04-03T09:04:16;9.50;;;6.60;;
35290;SDS011;21411;50.024;19.220;2023-04-03T09:06:44;9.90;;;6.40;;
35290;SDS011;21411;50.024;19.220;2023-04-03T09:17:59;10.20;;;7.40;;
35290;SDS011;21411;50.024;19.220;2023-04-03T09:23:00;15.00;;;6.80;;
35290;SDS011;21411;50.024;19.220;2023-04-03T09:25:34;9.90;;;5.70;;
35290;SDS011;21411;50.024;19.220;2023-04-03T09:28:03;6.60;;;4.70;;
35290;SDS011;21411;50.024;19.220;2023-04-03T09:30:36;7.40;;;6.00;;
35290;SDS011;21411;50.024;19.220;2023-04-03T09:33:04;8.30;;;5.80;;
35290;SDS011;21411;50.024;19.220;2023-04-03T09:35:33;8.70;;;6.40;;
35290;SDS011;21411;50.024;19.220;2023-04-03T09:38:15;11.00;;;8.00;;
35290;SDS011;21411;50.024;19.220;2023-04-03T09:40:44;8.00;;;5.90;;
35290;SDS011;21411;50.024;19.220;2023-04-03T09:43:29;7.90;;;6.20;;
35290;SDS011;21411;50.024;19.220;2023-04-03T09:46:15;6.40;;;4.60;;
35290;SDS011;21411;50.024;19.220;2023-04-03T09:48:56;8.50;;;4.90;;
35290;SDS011;21411;50.024;19.220;2023-04-03T09:51:26;4.90;;;3.60;;
35290;SDS011;21411;50.024;19.220;2023-04-03T09:57:35;5.10;;;3.60;;
35290;SDS011;21411;50.024;19.220;2023-04-03T10:00:03;5.00;;;3.80;;
35290;SDS011;21411;50.024;19.220;2023-04-03T10:02:55;6.70;;;4.10;;
35290;SDS011;21411;50.024;19.220;2023-04-03T10:05:36;6.80;;;4.20;;
35290;SDS011;21411;50.024;19.220;2023-04-03T10:10:40;6.80;;;4.90;;
35290;SDS011;21411;50.024;19.220;2023-04-03T10:13:10;7.70;;;5.30;;
35290;SDS011;21411;50.024;19.220;2023-04-03T10:15:43;6.80;;;4.30;;
35290;SDS011;21411;50.024;19.220;2023-04-03T10:18:20;4.70;;;3.40;;
35290;SDS011;21411;50.024;19.220;2023-04-03T10:23:50;4.90;;;2.80;;
35290;SDS011;21411;50.024;19.220;2023-04-03T10:26:37;3.40;;;1.80;;
35290;SDS011;21411;50.024;19.220;2023-04-03T10:32:15;3.20;;;2.40;;
35290;SDS011;21411;50.024;19.220;2023-04-03T10:34:45;4.60;;;2.30;;
35290;SDS011;21411;50.024;19.220;2023-04-03T10:37:16;3.00;;;2.10;;
35290;SDS011;21411;50.024;19.220;2023-04-03T10:45:26;2.40;;;1.20;;
35290;SDS011;21411;50.024;19.220;2023-04-03T10:48:02;2.00;;;1.30;;
35290;SDS011;21411;50.024;19.220;2023-04-03T10:53:08;1.60;;;1.40;;
35290;SDS011;21411;50.024;19.220;2023-04-03T10:56:03;5.70;;;1.90;;
35290;SDS011;21411;50.024;19.220;2023-04-03T10:58:40;2.20;;;1.30;;
35290;SDS011;21411;50.024;19.220;2023-04-03T11:01:17;3.50;;;1.90;;
35290;SDS011;21411;50.024;19.220;2023-04-03T11:03:48;2.70;;;1.50;;
35290;SDS011;21411;50.024;19.220;2023-04-03T11:06:19;3.00;;;1.30;;
35290;SDS011;21411;50.024;19.220;2023-04-03T11:08:54;2.10;;;1.40;;
35290;SDS011;21411;50.024;19.220;2023-04-03T11:11:27;2.00;;;1.40;;
35290;SDS011;21411;50.024;19.220;2023-04-03T11:16:35;5.10;;;1.80;;
35290;SDS011;21411;50.024;19.220;2023-04-03T11:22:03;3.30;;;1.40;;
35290;SDS011;21411;50.024;19.220;2023-04-03T11:27:40;2.80;;;1.50;;
35290;SDS011;21411;50.024;19.220;2023-04-03T11:30:13;3.20;;;1.80;;
35290;SDS011;21411;50.024;19.220;2023-04-03T11:33:01;2.20;;;1.40;;
35290;SDS011;21411;50.024;19.220;2023-04-03T11:35:43;2.40;;;1.60;;
35290;SDS011;21411;50.024;19.220;2023-04-03T11:38:17;2.30;;;1.20;;
35290;SDS011;21411;50.024;19.220;2023-04-03T11:40:49;1.30;;;1.20;;
35290;SDS011;21411;50.024;19.220;2023-04-03T11:43:20;2.60;;;1.60;;
35290;SDS011;21411;50.024;19.220;2023-04-03T11:45:56;3.40;;;1.70;;
35290;SDS011;21411;50.024;19.220;2023-04-03T11:50:54;2.20;;;1.80;;
35290;SDS011;21411;50.024;19.220;2023-04-03T11:53:29;3.60;;;1.60;;
35290;SDS011;21411;50.024;19.220;2023-04-03T11:56:03;2.40;;;1.50;;
35290;SDS011;21411;50.024;19.220;2023-04-03T12:01:45;3.70;;;2.00;;
35290;SDS011;21411;50.024;19.220;2023-04-03T12:04:19;2.80;;;1.80;;
35290;SDS011;21411;50.024;19.220;2023-04-03T12:09:25;3.30;;;2.40;;
35290;SDS011;21411;50.024;19.220;2023-04-03T12:11:55;6.90;;;3.90;;
35290;SDS011;21411;50.024;19.220;2023-04-03T12:14:23;5.70;;;3.80;;
35290;SDS011;21411;50.024;19.220;2023-04-03T12:16:52;4.60;;;3.20;;
35290;SDS011;21411;50.024;19.220;2023-04-03T12:24:25;6.20;;;3.40;;
35290;SDS011;21411;50.024;19.220;2023-04-03T12:46:07;2.70;;;2.10;;
35290;SDS011;21411;50.024;19.220;2023-04-03T12:48:47;2.50;;;2.10;;
35290;SDS011;21411;50.024;19.220;2023-04-03T12:51:18;2.60;;;1.50;;
35290;SDS011;21411;50.024;19.220;2023-04-03T12:53:48;1.70;;;1.30;;
35290;SDS011;21411;50.024;19.220;2023-04-03T12:56:19;2.40;;;1.80;;
35290;SDS011;21411;50.024;19.220;2023-04-03T12:58:48;3.20;;;1.80;;
35290;SDS011;21411;50.024;19.220;2023-04-03T13:01:18;3.00;;;1.90;;
35290;SDS011;21411;50.024;19.220;2023-04-03T13:03:50;4.00;;;2.20;;
35290;SDS011;21411;50.024;19.220;2023-04-03T13:06:24;2.90;;;2.00;;
35290;SDS011;21411;50.024;19.220;2023-04-03T13:08:55;5.50;;;3.60;;
35290;SDS011;21411;50.024;19.220;2023-04-03T13:13:59;3.50;;;2.40;;
35290;SDS011;21411;50.024;19.220;2023-04-03T13:16:28;3.50;;;2.40;;
35290;SDS011;21411;50.024;19.220;2023-04-03T13:18:55;4.00;;;2.20;;
35290;SDS011;21411;50.024;19.220;2023-04-03T13:21:26;3.70;;;2.60;;
35290;SDS011;21411;50.024;19.220;2023-04-03T13:23:56;6.20;;;3.80;;
35290;SDS011;21411;50.024;19.220;2023-04-03T13:26:25;8.20;;;3.40;;
35290;SDS011;21411;50.024;19.220;2023-04-03T13:28:57;11.80;;;5.90;;
35290;SDS011;21411;50.024;19.220;2023-04-03T13:31:45;4.60;;;2.30;;
35290;SDS011;21411;50.024;19.220;2023-04-03T13:34:12;3.60;;;2.70;;
35290;SDS011;21411;50.024;19.220;2023-04-03T13:36:46;5.20;;;2.90;;
35290;SDS011;21411;50.024;19.220;2023-04-03T13:39:24;5.90;;;3.50;;
35290;SDS011;21411;50.024;19.220;2023-04-03T13:41:59;9.90;;;5.60;;
35290;SDS011;21411;50.024;19.220;2023-04-03T13:44:40;13.70;;;6.40;;
35290;SDS011;21411;50.024;19.220;2023-04-03T13:49:41;10.90;;;5.70;;
35290;SDS011;21411;50.024;19.220;2023-04-03T13:55:18;7.40;;;4.30;;
35290;SDS011;21411;50.024;19.220;2023-04-03T13:57:49;5.80;;;3.90;;
35290;SDS011;21411;50.024;19.220;2023-04-03T14:03:13;7.40;;;4.40;;
35290;SDS011;21411;50.024;19.220;2023-04-03T14:05:46;6.60;;;4.50;;
35290;SDS011;21411;50.024;19.220;2023-04-03T14:08:13;7.50;;;4.40;;
35290;SDS011;21411;50.024;19.220;2023-04-03T14:10:40;5.10;;;3.80;;
35290;SDS011;21411;50.024;19.220;2023-04-03T14:13:08;6.90;;;4.00;;
35290;SDS011;21411;50.024;19.220;2023-04-03T14:15:37;6.20;;;3.10;;
35290;SDS011;21411;50.024;19.220;2023-04-03T14:18:04;6.80;;;2.90;;
35290;SDS011;21411;50.024;19.220;2023-04-03T14:20:31;6.40;;;3.20;;
35290;SDS011;21411;50.024;19.220;2023-04-03T14:22:57;3.60;;;2.30;;
35290;SDS011;21411;50.024;19.220;2023-04-03T14:25:24;3.60;;;2.40;;
35290;SDS011;21411;50.024;19.220;2023-04-03T14:27:51;4.50;;;2.40;;
35290;SDS011;21411;50.024;19.220;2023-04-03T14:30:21;2.50;;;2.10;;
35290;SDS011;21411;50.024;19.220;2023-04-03T14:32:50;4.90;;;2.50;;
35290;SDS011;21411;50.024;19.220;2023-04-03T14:35:18;3.30;;;2.00;;
35290;SDS011;21411;50.024;19.220;2023-04-03T14:37:45;3.20;;;2.20;;
35290;SDS011;21411;50.024;19.220;2023-04-03T14:40:18;3.30;;;2.20;;
35290;SDS011;21411;50.024;19.220;2023-04-03T14:42:47;2.90;;;2.30;;
35290;SDS011;21411;50.024;19.220;2023-04-03T14:45:15;4.60;;;2.60;;
35290;SDS011;21411;50.024;19.220;2023-04-03T14:47:45;6.60;;;3.20;;
35290;SDS011;21411;50.024;19.220;2023-04-03T14:50:18;4.10;;;2.70;;
35290;SDS011;21411;50.024;19.220;2023-04-03T14:52:47;4.60;;;2.30;;
35290;SDS011;21411;50.024;19.220;2023-04-03T14:55:16;3.10;;;2.10;;
35290;SDS011;21411;50.024;19.220;2023-04-03T14:57:45;4.40;;;2.60;;
35290;SDS011;21411;50.024;19.220;2023-04-03T15:00:13;2.90;;;2.20;;
35290;SDS011;21411;50.024;19.220;2023-04-03T15:02:48;3.50;;;1.90;;
35290;SDS011;21411;50.024;19.220;2023-04-03T15:05:15;5.20;;;1.90;;
35290;SDS011;21411;50.024;19.220;2023-04-03T15:07:43;2.60;;;1.80;;
35290;SDS011;21411;50.024;19.220;2023-04-03T15:12:46;3.50;;;2.60;;
35290;SDS011;21411;50.024;19.220;2023-04-03T15:15:14;3.30;;;2.40;;
35290;SDS011;21411;50.024;19.220;2023-04-03T15:17:42;3.50;;;2.00;;
35290;SDS011;21411;50.024;19.220;2023-04-03T15:20:14;6.60;;;2.50;;
35290;SDS011;21411;50.024;19.220;2023-04-03T15:22:43;3.50;;;2.70;;
35290;SDS011;21411;50.024;19.220;2023-04-03T15:25:10;5.80;;;2.80;;
35290;SDS011;21411;50.024;19.220;2023-04-03T15:27:37;4.10;;;2.50;;
35290;SDS011;21411;50.024;19.220;2023-04-03T15:30:04;5.90;;;2.50;;
35290;SDS011;21411;50.024;19.220;2023-04-03T15:32:34;7.30;;;4.70;;
35290;SDS011;21411;50.024;19.220;2023-04-03T15:35:01;2.20;;;2.00;;
35290;SDS011;21411;50.024;19.220;2023-04-03T15:37:28;3.60;;;2.30;;
35290;SDS011;21411;50.024;19.220;2023-04-03T15:39:54;4.20;;;1.80;;
35290;SDS011;21411;50.024;19.220;2023-04-03T15:42:21;4.20;;;2.40;;
35290;SDS011;21411;50.024;19.220;2023-04-03T15:44:47;3.00;;;1.80;;
35290;SDS011;21411;50.024;19.220;2023-04-03T15:47:14;2.90;;;1.80;;
35290;SDS011;21411;50.024;19.220;2023-04-03T15:49:40;5.40;;;2.20;;
35290;SDS011;21411;50.024;19.220;2023-04-03T15:52:07;3.90;;;2.40;;
35290;SDS011;21411;50.024;19.220;2023-04-03T15:54:34;4.20;;;3.20;;
35290;SDS011;21411;50.024;19.220;2023-04-03T15:57:01;5.40;;;2.30;;
35290;SDS011;21411;50.024;19.220;2023-04-03T15:59:27;4.10;;;2.50;;
35290;SDS011;21411;50.024;19.220;2023-04-03T16:01:56;3.20;;;2.10;;
35290;SDS011;21411;50.024;19.220;2023-04-03T16:04:24;4.30;;;2.40;;
35290;SDS011;21411;50.024;19.220;2023-04-03T16:06:51;4.40;;;2.60;;
35290;SDS011;21411;50.024;19.220;2023-04-03T16:09:18;5.00;;;2.50;;
35290;SDS011;21411;50.024;19.220;2023-04-03T16:11:45;7.50;;;3.80;;
35290;SDS011;21411;50.024;19.220;2023-04-03T16:14:11;7.00;;;3.60;;
35290;SDS011;21411;50.024;19.220;2023-04-03T16:16:38;4.20;;;2.70;;
35290;SDS011;21411;50.024;19.220;2023-04-03T16:19:04;5.40;;;3.20;;
35290;SDS011;21411;50.024;19.220;2023-04-03T16:21:32;5.80;;;3.00;;